Time;durP1;ratioP1;P1;durP2;ratioP2;P2;SDS_P1;SDS_P2;PMS_P1;PMS_P2;Temp;Humidity;BMP_temperature;BMP_pressure;BME280_temperature;BME280_humidity;BME280_pressure;Samples;Min_cycle;Max_cycle;Signal;HPM_P1;HPM_P2
2022/11/19 00:01:34;;;;;;;0.60;0.60;;;;;;;;;;5082382;28;20429;-77
2022/11/19 00:04:09;;;;;;;0.67;0.67;;;;;;;;;;5080400;28;20481;-78
2022/11/19 00:06:36;;;;;;;0.60;0.57;;;;;;;;;;5083195;28;20562;-76
2022/11/19 00:09:04;;;;;;;0.60;0.60;;;;;;;;;;5077104;28;20814;-75
2022/11/19 00:14:22;;;;;;;0.90;0.90;;;;;;;;;;5075851;28;20859;-78
2022/11/19 00:16:53;;;;;;;0.60;0.60;;;;;;;;;;5083763;28;20486;-77
2022/11/19 00:19:21;;;;;;;0.60;0.60;;;;;;;;;;5085962;28;20522;-77
2022/11/19 00:21:49;;;;;;;1.00;1.00;;;;;;;;;;5078074;28;20468;-78
2022/11/19 00:24:17;;;;;;;0.60;0.60;;;;;;;;;;5078133;28;20561;-77
2022/11/19 00:26:44;;;;;;;0.70;0.70;;;;;;;;;;5080163;28;20438;-74
2022/11/19 00:29:11;;;;;;;0.60;0.60;;;;;;;;;;5075146;28;20475;-79
2022/11/19 00:31:46;;;;;;;0.90;0.90;;;;;;;;;;5064228;28;20451;-77
2022/11/19 00:34:12;;;;;;;0.60;0.60;;;;;;;;;;5055083;28;20876;-77
2022/11/19 00:36:41;;;;;;;0.60;0.60;;;;;;;;;;5078294;28;20462;-76
2022/11/19 00:39:10;;;;;;;0.60;0.60;;;;;;;;;;5090109;28;20783;-77
2022/11/19 00:41:37;;;;;;;0.67;0.67;;;;;;;;;;5075962;28;20455;-78
2022/11/19 00:44:05;;;;;;;1.00;1.00;;;;;;;;;;5080547;28;20516;-78
2022/11/19 00:46:32;;;;;;;0.80;0.80;;;;;;;;;;5087287;28;20955;-77
2022/11/19 00:49:04;;;;;;;0.60;0.60;;;;;;;;;;5055730;28;20458;-77
2022/11/19 00:51:31;;;;;;;0.70;0.70;;;;;;;;;;5075088;28;20478;-77
2022/11/19 00:53:59;;;;;;;1.57;1.10;;;;;;;;;;5078115;28;20986;-77
2022/11/19 00:56:26;;;;;;;0.90;0.90;;;;;;;;;;5068800;28;20438;-77
2022/11/19 00:58:55;;;;;;;0.60;0.60;;;;;;;;;;5087881;28;20456;-78
2022/11/19 01:01:23;;;;;;;0.60;0.60;;;;;;;;;;5087101;28;20444;-77
2022/11/19 01:03:53;;;;;;;0.60;0.60;;;;;;;;;;5061390;28;20903;-77
2022/11/19 01:06:24;;;;;;;0.70;0.70;;;;;;;;;;5078265;28;21038;-77
2022/11/19 01:08:52;;;;;;;0.60;0.60;;;;;;;;;;5061796;28;20986;-77
2022/11/19 01:11:20;;;;;;;0.67;0.67;;;;;;;;;;5079145;28;20437;-77
2022/11/19 01:13:47;;;;;;;0.80;0.80;;;;;;;;;;5082816;28;20455;-77
2022/11/19 01:16:17;;;;;;;0.80;0.80;;;;;;;;;;5067642;28;20462;-77
2022/11/19 01:18:45;;;;;;;0.60;0.60;;;;;;;;;;5080136;28;20457;-76
2022/11/19 01:21:12;;;;;;;2.10;1.70;;;;;;;;;;5076441;28;20454;-77
2022/11/19 01:23:41;;;;;;;0.60;0.60;;;;;;;;;;5069026;28;20513;-76
2022/11/19 01:26:08;;;;;;;0.60;0.60;;;;;;;;;;5073687;28;20439;-76
2022/11/19 01:28:35;;;;;;;0.60;0.60;;;;;;;;;;5078891;28;20434;-77
2022/11/19 01:31:05;;;;;;;0.90;0.90;;;;;;;;;;5055240;28;20443;-76
2022/11/19 01:33:32;;;;;;;0.80;0.80;;;;;;;;;;5077135;28;20492;-76
2022/11/19 01:36:01;;;;;;;1.00;1.00;;;;;;;;;;5060956;28;20472;-76
2022/11/19 01:38:28;;;;;;;0.60;0.60;;;;;;;;;;5087214;28;20807;-76
2022/11/19 01:40:57;;;;;;;0.67;0.67;;;;;;;;;;5086106;28;20455;-78
2022/11/19 01:43:42;;;;;;;0.60;0.60;;;;;;;;;;5080638;28;21378;-77
2022/11/19 01:46:10;;;;;;;0.60;0.60;;;;;;;;;;5084111;28;21142;-77
2022/11/19 01:48:43;;;;;;;0.83;0.83;;;;;;;;;;5078463;28;20835;-78
2022/11/19 01:51:12;;;;;;;0.60;0.60;;;;;;;;;;5091881;28;20797;-78
2022/11/19 01:53:39;;;;;;;0.60;0.60;;;;;;;;;;5068478;28;20463;-77
2022/11/19 01:56:07;;;;;;;0.60;0.50;;;;;;;;;;5085379;28;20529;-78
2022/11/19 01:58:36;;;;;;;0.70;0.70;;;;;;;;;;5075504;28;20966;-78
2022/11/19 02:01:03;;;;;;;1.10;0.90;;;;;;;;;;5083709;28;20436;-77
2022/11/19 02:03:31;;;;;;;0.70;0.70;;;;;;;;;;5089699;28;20480;-78
2022/11/19 02:05:59;;;;;;;1.43;1.33;;;;;;;;;;5084631;28;20463;-76
2022/11/19 02:08:33;;;;;;;0.80;0.80;;;;;;;;;;5076895;28;20438;-79
2022/11/19 02:11:07;;;;;;;0.73;0.73;;;;;;;;;;5088657;28;20991;-80
2022/11/19 02:13:40;;;;;;;0.60;0.60;;;;;;;;;;5062964;28;20460;-80
2022/11/19 02:16:14;;;;;;;0.60;0.60;;;;;;;;;;5079407;28;20452;-77
2022/11/19 02:18:46;;;;;;;0.97;0.70;;;;;;;;;;5085010;28;20531;-77
2022/11/19 02:21:18;;;;;;;0.60;0.60;;;;;;;;;;5048321;28;20529;-78
2022/11/19 02:24:00;;;;;;;1.00;1.00;;;;;;;;;;5081740;28;20475;-77
2022/11/19 02:26:48;;;;;;;0.60;0.60;;;;;;;;;;5087823;28;20425;-77
2022/11/19 02:29:24;;;;;;;0.60;0.60;;;;;;;;;;5088613;28;20483;-77
2022/11/19 02:31:56;;;;;;;0.60;0.60;;;;;;;;;;5073752;28;20433;-77
2022/11/19 02:34:26;;;;;;;0.60;0.50;;;;;;;;;;5084847;28;20466;-76
2022/11/19 02:36:55;;;;;;;0.60;0.60;;;;;;;;;;5060542;28;20479;-77
2022/11/19 02:39:24;;;;;;;0.60;0.60;;;;;;;;;;5061387;28;20829;-77
2022/11/19 02:41:54;;;;;;;0.60;0.50;;;;;;;;;;5077286;28;20446;-76
2022/11/19 02:47:11;;;;;;;0.60;0.60;;;;;;;;;;5071293;28;20451;-76
2022/11/19 02:49:40;;;;;;;1.23;1.13;;;;;;;;;;5077979;28;20495;-76
2022/11/19 02:52:09;;;;;;;0.60;0.60;;;;;;;;;;5078757;28;20850;-76
2022/11/19 02:54:37;;;;;;;0.60;0.50;;;;;;;;;;5084708;28;20927;-76
2022/11/19 02:57:04;;;;;;;0.60;0.50;;;;;;;;;;5082582;28;20918;-78
2022/11/19 03:05:14;;;;;;;0.77;0.77;;;;;;;;;;5075479;28;21586;-78
2022/11/19 03:07:41;;;;;;;0.60;0.60;;;;;;;;;;5083386;28;20447;-76
2022/11/19 03:10:09;;;;;;;0.60;0.60;;;;;;;;;;5063222;28;20568;-78
2022/11/19 03:12:41;;;;;;;0.60;0.60;;;;;;;;;;5056256;28;20464;-78
2022/11/19 03:18:03;;;;;;;0.60;0.60;;;;;;;;;;5086689;28;20449;-80
2022/11/19 03:20:32;;;;;;;0.60;0.60;;;;;;;;;;5063084;28;20466;-79
2022/11/19 03:23:03;;;;;;;0.60;0.50;;;;;;;;;;5071858;28;20524;-79
2022/11/19 03:25:37;;;;;;;0.60;0.60;;;;;;;;;;5067136;28;20477;-78
2022/11/19 03:28:07;;;;;;;1.40;1.30;;;;;;;;;;5072645;28;20503;-80
2022/11/19 03:30:35;;;;;;;0.60;0.60;;;;;;;;;;5061517;28;20819;-78
2022/11/19 03:33:05;;;;;;;0.70;0.70;;;;;;;;;;5072871;28;20446;-79
2022/11/19 03:35:34;;;;;;;0.60;0.50;;;;;;;;;;5075386;28;20465;-80
2022/11/19 03:38:05;;;;;;;0.60;0.60;;;;;;;;;;5079460;28;20431;-79
2022/11/19 03:40:35;;;;;;;0.60;0.60;;;;;;;;;;5080924;28;20831;-79
2022/11/19 03:43:04;;;;;;;0.70;0.70;;;;;;;;;;5077782;28;20982;-79
2022/11/19 03:45:33;;;;;;;0.60;0.60;;;;;;;;;;5061981;28;20488;-79
2022/11/19 03:48:00;;;;;;;0.70;0.70;;;;;;;;;;5081839;28;20473;-78
2022/11/19 03:50:34;;;;;;;0.60;0.60;;;;;;;;;;5056885;28;20465;-78
2022/11/19 03:53:03;;;;;;;0.60;0.60;;;;;;;;;;5078670;28;20546;-78
2022/11/19 03:55:33;;;;;;;0.60;0.60;;;;;;;;;;5058582;28;20850;-78
2022/11/19 03:58:01;;;;;;;0.60;0.60;;;;;;;;;;5090951;28;20811;-77
2022/11/19 04:00:29;;;;;;;0.60;0.60;;;;;;;;;;5083616;28;21171;-79
2022/11/19 04:02:56;;;;;;;0.60;0.60;;;;;;;;;;5075805;28;20877;-80
2022/11/19 04:05:24;;;;;;;0.60;0.60;;;;;;;;;;5079737;28;20981;-76
2022/11/19 04:07:56;;;;;;;0.60;0.57;;;;;;;;;;5077834;28;20465;-77
2022/11/19 04:10:23;;;;;;;0.60;0.60;;;;;;;;;;5061105;28;20441;-78
2022/11/19 04:12:49;;;;;;;0.60;0.60;;;;;;;;;;5075609;28;20439;-78
2022/11/19 04:15:16;;;;;;;0.60;0.60;;;;;;;;;;5071197;28;20479;-79
2022/11/19 04:17:43;;;;;;;0.60;0.60;;;;;;;;;;5078998;28;20419;-77
2022/11/19 04:20:11;;;;;;;0.60;0.60;;;;;;;;;;5082562;28;20455;-79
2022/11/19 04:22:37;;;;;;;0.60;0.60;;;;;;;;;;5077316;28;20495;-76
2022/11/19 04:25:07;;;;;;;0.60;0.60;;;;;;;;;;5069439;28;20467;-78
2022/11/19 04:27:35;;;;;;;0.60;0.60;;;;;;;;;;5078553;28;21025;-75
2022/11/19 04:30:03;;;;;;;0.60;0.50;;;;;;;;;;5064079;28;20482;-77
2022/11/19 04:32:30;;;;;;;0.60;0.60;;;;;;;;;;5077744;28;20478;-76
2022/11/19 04:35:00;;;;;;;0.60;0.60;;;;;;;;;;5077325;28;20438;-77
2022/11/19 04:37:27;;;;;;;0.60;0.60;;;;;;;;;;5076040;28;20471;-77
2022/11/19 04:39:54;;;;;;;0.87;0.87;;;;;;;;;;5047038;28;20477;-77
2022/11/19 04:42:44;;;;;;;0.60;0.60;;;;;;;;;;5075574;28;20914;-75
2022/11/19 04:45:11;;;;;;;0.60;0.60;;;;;;;;;;5061706;28;20821;-76
2022/11/19 04:47:39;;;;;;;0.60;0.60;;;;;;;;;;5080764;28;20446;-75
2022/11/19 04:50:08;;;;;;;0.60;0.60;;;;;;;;;;5068353;28;20451;-78
2022/11/19 04:52:44;;;;;;;0.60;0.50;;;;;;;;;;5065045;28;20934;-76
2022/11/19 04:55:14;;;;;;;0.60;0.57;;;;;;;;;;5081177;28;20989;-76
2022/11/19 04:57:43;;;;;;;0.60;0.60;;;;;;;;;;5076856;28;20975;-75
2022/11/19 05:00:17;;;;;;;0.60;0.53;;;;;;;;;;5070874;28;20445;-75
2022/11/19 05:02:48;;;;;;;0.60;0.60;;;;;;;;;;5088966;28;20450;-75
2022/11/19 05:05:23;;;;;;;0.70;0.70;;;;;;;;;;5079118;28;20508;-75
2022/11/19 05:07:52;;;;;;;0.60;0.60;;;;;;;;;;5062713;28;20447;-75
2022/11/19 05:10:24;;;;;;;0.60;0.50;;;;;;;;;;5053862;28;20485;-75
2022/11/19 05:12:54;;;;;;;0.60;0.60;;;;;;;;;;5086274;28;20426;-74
2022/11/19 05:15:26;;;;;;;0.60;0.57;;;;;;;;;;5071119;28;20542;-75
2022/11/19 05:17:56;;;;;;;0.60;0.60;;;;;;;;;;5066547;28;20427;-76
2022/11/19 05:20:26;;;;;;;0.60;0.60;;;;;;;;;;5070404;28;20961;-74
2022/11/19 05:22:57;;;;;;;0.80;0.80;;;;;;;;;;5061524;28;20534;-76
2022/11/19 05:25:29;;;;;;;0.60;0.60;;;;;;;;;;5080050;28;20461;-75
2022/11/19 05:27:58;;;;;;;0.60;0.60;;;;;;;;;;5072895;28;20435;-75
2022/11/19 05:30:28;;;;;;;0.60;0.60;;;;;;;;;;5068724;28;20467;-76
2022/11/19 05:32:56;;;;;;;0.60;0.60;;;;;;;;;;5077700;28;20434;-76
2022/11/19 05:35:24;;;;;;;0.60;0.60;;;;;;;;;;5075815;28;20463;-75
2022/11/19 05:37:52;;;;;;;0.60;0.60;;;;;;;;;;5072131;28;20525;-74
2022/11/19 05:40:22;;;;;;;0.67;0.60;;;;;;;;;;5083063;28;20458;-76
2022/11/19 05:42:51;;;;;;;0.60;0.50;;;;;;;;;;5070348;28;20451;-74
2022/11/19 05:45:21;;;;;;;0.60;0.60;;;;;;;;;;5074020;28;20463;-76
2022/11/19 05:47:54;;;;;;;0.60;0.60;;;;;;;;;;5073916;28;20439;-75
2022/11/19 05:50:29;;;;;;;0.60;0.60;;;;;;;;;;5072747;28;20465;-75
2022/11/19 05:53:01;;;;;;;0.60;0.60;;;;;;;;;;5083580;28;20879;-75
2022/11/19 05:55:31;;;;;;;0.60;0.50;;;;;;;;;;5075843;28;20449;-75
2022/11/19 05:58:03;;;;;;;0.60;0.60;;;;;;;;;;5065460;28;21300;-75
2022/11/19 06:00:36;;;;;;;0.60;0.60;;;;;;;;;;5070447;28;20451;-76
2022/11/19 06:03:10;;;;;;;0.60;0.60;;;;;;;;;;5073784;28;20194;-75
2022/11/19 06:05:41;;;;;;;0.60;0.60;;;;;;;;;;5075947;28;20478;-75
2022/11/19 06:08:12;;;;;;;0.60;0.60;;;;;;;;;;5069406;28;20419;-74
2022/11/19 06:10:50;;;;;;;0.60;0.60;;;;;;;;;;5071660;28;20499;-75
2022/11/19 06:13:23;;;;;;;0.60;0.60;;;;;;;;;;5053677;28;20454;-75
2022/11/19 06:15:55;;;;;;;0.60;0.60;;;;;;;;;;5071638;28;20963;-76
2022/11/19 06:18:27;;;;;;;0.68;0.68;;;;;;;;;;5077692;28;20443;-75
2022/11/19 06:21:00;;;;;;;0.80;0.80;;;;;;;;;;5074553;28;20270;-75
2022/11/19 06:23:38;;;;;;;0.60;0.60;;;;;;;;;;5057782;28;20227;-73
2022/11/19 06:26:09;;;;;;;0.70;0.70;;;;;;;;;;5087330;28;20208;-75
2022/11/19 06:28:36;;;;;;;1.23;1.13;;;;;;;;;;5076754;28;20431;-77
2022/11/19 06:31:03;;;;;;;0.67;0.67;;;;;;;;;;5079388;28;20442;-76
2022/11/19 06:33:34;;;;;;;0.60;0.60;;;;;;;;;;5083871;28;20472;-74
2022/11/19 06:36:02;;;;;;;0.60;0.60;;;;;;;;;;5072797;28;20445;-74
2022/11/19 06:38:29;;;;;;;0.60;0.60;;;;;;;;;;5076226;28;20442;-75
2022/11/19 06:40:56;;;;;;;0.60;0.60;;;;;;;;;;5077264;28;20200;-75
2022/11/19 06:43:23;;;;;;;0.60;0.60;;;;;;;;;;5076122;28;20212;-74
2022/11/19 06:45:49;;;;;;;0.80;0.80;;;;;;;;;;5084983;28;20212;-74
2022/11/19 06:48:16;;;;;;;0.67;0.63;;;;;;;;;;5085069;28;20480;-74
2022/11/19 06:50:44;;;;;;;0.60;0.60;;;;;;;;;;5083241;28;20450;-74
2022/11/19 06:53:12;;;;;;;0.60;0.60;;;;;;;;;;5074969;28;20451;-77
2022/11/19 06:55:39;;;;;;;0.82;0.82;;;;;;;;;;5076929;28;20450;-74
2022/11/19 06:58:06;;;;;;;0.70;0.63;;;;;;;;;;5081248;28;20204;-74
2022/11/19 07:00:34;;;;;;;0.60;0.60;;;;;;;;;;5080560;28;20424;-75
2022/11/19 07:03:01;;;;;;;0.60;0.60;;;;;;;;;;5084865;28;20438;-75
2022/11/19 07:05:28;;;;;;;0.60;0.60;;;;;;;;;;5067506;28;20565;-74
2022/11/19 07:07:57;;;;;;;0.60;0.60;;;;;;;;;;5064841;28;20209;-75
2022/11/19 07:10:29;;;;;;;0.60;0.60;;;;;;;;;;5080913;28;21304;-77
2022/11/19 07:12:55;;;;;;;0.60;0.60;;;;;;;;;;5078655;28;20557;-75
2022/11/19 07:15:22;;;;;;;0.60;0.60;;;;;;;;;;5084955;28;20463;-75
2022/11/19 07:17:49;;;;;;;0.60;0.60;;;;;;;;;;5083973;28;20443;-75
2022/11/19 07:20:16;;;;;;;0.60;0.50;;;;;;;;;;5061847;28;20268;-74
2022/11/19 07:22:43;;;;;;;0.60;0.60;;;;;;;;;;5062616;28;20510;-75
2022/11/19 07:25:11;;;;;;;0.60;0.60;;;;;;;;;;5063904;28;20470;-75
2022/11/19 07:27:39;;;;;;;0.60;0.57;;;;;;;;;;5079094;28;20454;-74
2022/11/19 07:30:09;;;;;;;0.60;0.60;;;;;;;;;;5085193;28;20937;-75
2022/11/19 07:32:35;;;;;;;0.60;0.60;;;;;;;;;;5084041;28;20463;-74
2022/11/19 07:35:02;;;;;;;1.70;1.58;;;;;;;;;;5078260;28;20199;-75
2022/11/19 07:37:30;;;;;;;0.80;0.80;;;;;;;;;;5079702;28;20205;-75
2022/11/19 07:39:57;;;;;;;0.70;0.70;;;;;;;;;;5065873;28;20232;-74
2022/11/19 07:45:11;;;;;;;0.60;0.60;;;;;;;;;;5074708;28;20499;-75
2022/11/19 07:47:38;;;;;;;0.60;0.50;;;;;;;;;;5058506;28;20288;-75
2022/11/19 07:50:06;;;;;;;0.70;0.70;;;;;;;;;;5061270;28;20628;-73
2022/11/19 07:52:33;;;;;;;0.60;0.60;;;;;;;;;;5088503;28;20201;-75
2022/11/19 07:55:00;;;;;;;0.60;0.60;;;;;;;;;;5078648;28;20607;-75
2022/11/19 07:57:28;;;;;;;0.70;0.63;;;;;;;;;;5068306;28;20205;-75
2022/11/19 07:59:56;;;;;;;0.80;0.80;;;;;;;;;;5077451;28;20439;-75
2022/11/19 08:02:45;;;;;;;0.60;0.60;;;;;;;;;;5071547;28;20324;-76
2022/11/19 08:05:12;;;;;;;0.60;0.60;;;;;;;;;;5060214;28;20696;-75
2022/11/19 08:07:40;;;;;;;0.60;0.60;;;;;;;;;;5084005;28;20201;-75
2022/11/19 08:10:08;;;;;;;0.75;0.75;;;;;;;;;;5074202;28;20189;-76
2022/11/19 08:12:36;;;;;;;0.60;0.60;;;;;;;;;;5065260;28;20555;-75
2022/11/19 08:15:04;;;;;;;0.60;0.60;;;;;;;;;;5060333;28;20524;-74
2022/11/19 08:20:16;;;;;;;0.60;0.60;;;;;;;;;;5079282;28;20243;-75
2022/11/19 08:22:43;;;;;;;0.60;0.60;;;;;;;;;;5071232;28;20983;-75
2022/11/19 08:25:10;;;;;;;0.70;0.70;;;;;;;;;;5068532;28;20248;-76
2022/11/19 08:27:39;;;;;;;0.60;0.60;;;;;;;;;;5075183;28;20219;-75
2022/11/19 08:30:07;;;;;;;1.00;0.98;;;;;;;;;;5077781;28;20700;-76
2022/11/19 08:32:34;;;;;;;0.70;0.70;;;;;;;;;;5080035;28;20260;-75
2022/11/19 08:35:02;;;;;;;0.70;0.70;;;;;;;;;;5071428;28;20441;-76
2022/11/19 08:37:28;;;;;;;1.27;1.00;;;;;;;;;;5072495;28;20443;-74
2022/11/19 08:39:56;;;;;;;2.45;2.20;;;;;;;;;;5071208;28;20192;-74
2022/11/19 08:45:10;;;;;;;0.60;0.60;;;;;;;;;;5075721;28;20258;-74
2022/11/19 08:47:37;;;;;;;0.60;0.60;;;;;;;;;;5075684;28;20469;-73
2022/11/19 08:50:04;;;;;;;0.60;0.60;;;;;;;;;;5075746;28;20249;-73
2022/11/19 08:52:31;;;;;;;0.70;0.70;;;;;;;;;;5071639;28;20264;-74
2022/11/19 08:54:58;;;;;;;0.60;0.55;;;;;;;;;;5066059;28;20201;-73
2022/11/19 08:57:25;;;;;;;0.60;0.60;;;;;;;;;;5074751;28;20300;-73
2022/11/19 08:59:52;;;;;;;3.23;2.03;;;;;;;;;;5081835;28;20955;-72
2022/11/19 09:02:20;;;;;;;0.70;0.70;;;;;;;;;;5077288;28;20485;-73
2022/11/19 09:04:50;;;;;;;0.60;0.60;;;;;;;;;;5071780;28;20430;-74
2022/11/19 09:07:17;;;;;;;0.70;0.60;;;;;;;;;;5073399;28;20461;-75
2022/11/19 09:09:43;;;;;;;0.60;0.60;;;;;;;;;;5073713;28;20193;-74
2022/11/19 09:12:10;;;;;;;0.60;0.60;;;;;;;;;;5076818;28;20520;-74
2022/11/19 09:14:37;;;;;;;0.80;0.80;;;;;;;;;;5074749;28;20196;-74
2022/11/19 09:17:04;;;;;;;0.70;0.70;;;;;;;;;;5075730;28;20705;-74
2022/11/19 09:19:32;;;;;;;0.60;0.60;;;;;;;;;;5074171;28;20434;-73
2022/11/19 09:21:59;;;;;;;0.60;0.60;;;;;;;;;;5075121;28;20235;-74
2022/11/19 09:24:26;;;;;;;2.08;1.77;;;;;;;;;;5072828;28;20621;-75
2022/11/19 09:26:53;;;;;;;0.60;0.60;;;;;;;;;;5077171;28;20303;-75
2022/11/19 09:29:27;;;;;;;0.80;0.80;;;;;;;;;;5074900;28;20256;-75
2022/11/19 09:31:55;;;;;;;0.60;0.60;;;;;;;;;;5074677;28;20484;-74
2022/11/19 09:34:21;;;;;;;0.70;0.70;;;;;;;;;;5076368;28;20524;-76
2022/11/19 09:36:50;;;;;;;0.60;0.60;;;;;;;;;;5078845;28;20485;-76
2022/11/19 09:39:18;;;;;;;0.67;0.67;;;;;;;;;;5074866;28;20426;-75
2022/11/19 09:41:48;;;;;;;0.80;0.80;;;;;;;;;;5081336;28;20427;-77
2022/11/19 09:44:22;;;;;;;0.67;0.60;;;;;;;;;;5076428;28;20433;-74
2022/11/19 09:46:54;;;;;;;1.63;1.20;;;;;;;;;;5080427;28;20477;-74
2022/11/19 09:49:24;;;;;;;0.70;0.70;;;;;;;;;;5078744;28;20487;-75
2022/11/19 09:51:56;;;;;;;0.60;0.60;;;;;;;;;;5077741;28;20979;-74
2022/11/19 09:54:24;;;;;;;0.60;0.60;;;;;;;;;;5072232;28;20447;-75
2022/11/19 09:56:53;;;;;;;0.60;0.60;;;;;;;;;;5074826;28;21006;-74
2022/11/19 09:59:24;;;;;;;1.67;1.57;;;;;;;;;;5073786;28;20491;-75
2022/11/19 10:01:50;;;;;;;0.60;0.60;;;;;;;;;;5083814;28;20522;-74
2022/11/19 10:04:20;;;;;;;0.70;0.60;;;;;;;;;;5063719;28;21142;-73
2022/11/19 10:06:51;;;;;;;0.60;0.60;;;;;;;;;;5078331;28;20482;-75
2022/11/19 10:09:29;;;;;;;0.60;0.60;;;;;;;;;;5087005;28;21040;-76
2022/11/19 10:12:05;;;;;;;0.70;0.70;;;;;;;;;;5083863;28;20447;-75
2022/11/19 10:14:43;;;;;;;0.70;0.70;;;;;;;;;;5066581;28;20528;-74
2022/11/19 10:17:17;;;;;;;0.70;0.70;;;;;;;;;;5083097;28;20192;-75
2022/11/19 10:19:53;;;;;;;0.70;0.70;;;;;;;;;;5086046;28;20422;-75
2022/11/19 10:22:21;;;;;;;0.70;0.63;;;;;;;;;;5059043;28;20432;-76
2022/11/19 10:24:53;;;;;;;0.60;0.60;;;;;;;;;;5069817;28;20801;-76
2022/11/19 10:27:22;;;;;;;0.70;0.70;;;;;;;;;;5062957;28;20465;-76
2022/11/19 10:29:53;;;;;;;0.60;0.60;;;;;;;;;;5057187;28;20465;-76
2022/11/19 10:32:24;;;;;;;0.70;0.70;;;;;;;;;;5075668;28;20427;-75
2022/11/19 10:34:57;;;;;;;0.70;0.67;;;;;;;;;;5075549;28;20478;-75
2022/11/19 10:37:28;;;;;;;0.70;0.60;;;;;;;;;;5076184;28;20439;-77
2022/11/19 10:39:58;;;;;;;0.60;0.60;;;;;;;;;;5072706;28;20196;-76
2022/11/19 10:42:27;;;;;;;0.70;0.70;;;;;;;;;;5079667;28;21005;-75
2022/11/19 10:44:55;;;;;;;0.70;0.60;;;;;;;;;;5083706;28;20205;-76
2022/11/19 10:47:28;;;;;;;1.53;1.43;;;;;;;;;;5085110;28;20481;-76
2022/11/19 10:49:57;;;;;;;0.70;0.60;;;;;;;;;;5069062;28;20431;-75
2022/11/19 10:52:26;;;;;;;0.70;0.60;;;;;;;;;;5073223;28;20483;-75
2022/11/19 10:54:55;;;;;;;0.70;0.70;;;;;;;;;;5072393;28;20439;-75
2022/11/19 10:57:24;;;;;;;0.60;0.60;;;;;;;;;;5080355;28;20438;-77
2022/11/19 10:59:53;;;;;;;0.63;0.60;;;;;;;;;;5097620;28;20458;-77
2022/11/19 11:02:22;;;;;;;0.60;0.60;;;;;;;;;;5063207;28;20513;-76
2022/11/19 11:05:02;;;;;;;0.60;0.60;;;;;;;;;;5060333;28;20498;-75
2022/11/19 11:07:48;;;;;;;0.70;0.60;;;;;;;;;;5076551;28;20464;-74
2022/11/19 11:10:24;;;;;;;0.70;0.60;;;;;;;;;;5069368;28;20443;-75
2022/11/19 11:15:43;;;;;;;0.70;0.60;;;;;;;;;;5066162;28;20212;-76
2022/11/19 11:18:13;;;;;;;0.70;0.70;;;;;;;;;;5071563;28;20463;-76
2022/11/19 11:20:44;;;;;;;0.60;0.60;;;;;;;;;;5071819;28;20517;-75
2022/11/19 11:23:13;;;;;;;0.67;0.60;;;;;;;;;;5055900;28;20522;-76
2022/11/19 11:25:49;;;;;;;0.60;0.60;;;;;;;;;;5080635;28;20434;-76
2022/11/19 11:28:21;;;;;;;0.60;0.60;;;;;;;;;;5079943;28;20964;-75
2022/11/19 11:30:54;;;;;;;0.70;0.60;;;;;;;;;;5075793;28;20438;-76
2022/11/19 11:33:25;;;;;;;1.10;0.97;;;;;;;;;;5074472;28;20455;-75
2022/11/19 11:35:53;;;;;;;0.70;0.70;;;;;;;;;;5068530;28;20459;-77
2022/11/19 11:38:22;;;;;;;2.00;1.90;;;;;;;;;;5073340;28;20443;-76
2022/11/19 11:40:58;;;;;;;0.70;0.60;;;;;;;;;;5075427;28;20506;-76
2022/11/19 11:44:00;;;;;;;0.70;0.60;;;;;;;;;;5072452;28;20505;-76
2022/11/19 11:46:33;;;;;;;1.50;1.40;;;;;;;;;;5077710;28;20462;-76
2022/11/19 11:49:00;;;;;;;0.70;0.70;;;;;;;;;;5071576;28;20469;-76
2022/11/19 11:51:38;;;;;;;0.70;0.60;;;;;;;;;;5077107;28;20501;-76
2022/11/19 11:54:14;;;;;;;0.70;0.60;;;;;;;;;;5076481;28;20564;-76
2022/11/19 11:56:44;;;;;;;2.97;1.37;;;;;;;;;;5077372;28;20447;-76
2022/11/19 11:59:22;;;;;;;0.83;0.83;;;;;;;;;;5075478;28;20427;-75
2022/11/19 12:01:56;;;;;;;0.70;0.60;;;;;;;;;;5071962;28;20471;-75
2022/11/19 12:04:23;;;;;;;1.57;1.47;;;;;;;;;;5076936;28;20438;-76
2022/11/19 12:07:04;;;;;;;0.67;0.60;;;;;;;;;;5075499;28;20840;-75
2022/11/19 12:09:34;;;;;;;0.70;0.67;;;;;;;;;;5074273;28;20453;-76
2022/11/19 12:12:04;;;;;;;0.70;0.60;;;;;;;;;;5063776;28;20440;-74
2022/11/19 12:14:35;;;;;;;0.70;0.60;;;;;;;;;;5074383;28;20427;-75
2022/11/19 12:17:16;;;;;;;0.70;0.70;;;;;;;;;;5076983;28;20455;-75
2022/11/19 12:19:54;;;;;;;0.70;0.70;;;;;;;;;;5058152;28;21235;-74
2022/11/19 12:22:26;;;;;;;0.70;0.60;;;;;;;;;;5080017;28;20431;-77
2022/11/19 12:25:17;;;;;;;0.67;0.60;;;;;;;;;;5081655;28;20441;-77
2022/11/19 12:27:51;;;;;;;0.70;0.70;;;;;;;;;;5066989;28;20513;-76
2022/11/19 12:30:23;;;;;;;0.70;0.60;;;;;;;;;;5072783;28;20533;-75
2022/11/19 12:33:05;;;;;;;0.70;0.70;;;;;;;;;;5077887;28;20849;-76
2022/11/19 12:35:42;;;;;;;0.70;0.60;;;;;;;;;;5075742;28;20501;-75
2022/11/19 12:38:23;;;;;;;0.70;0.60;;;;;;;;;;5074670;28;20434;-79
2022/11/19 12:40:54;;;;;;;0.70;0.70;;;;;;;;;;5079171;28;20422;-75
2022/11/19 12:43:36;;;;;;;0.70;0.70;;;;;;;;;;5064477;28;20446;-76
2022/11/19 12:46:09;;;;;;;0.63;0.60;;;;;;;;;;5080747;28;20437;-76
2022/11/19 12:48:44;;;;;;;0.60;0.60;;;;;;;;;;5085885;28;20436;-77
2022/11/19 12:51:17;;;;;;;0.60;0.60;;;;;;;;;;5084287;28;20485;-76
2022/11/19 12:53:50;;;;;;;0.70;0.70;;;;;;;;;;5082502;28;20560;-77
2022/11/19 12:56:23;;;;;;;0.70;0.60;;;;;;;;;;5071184;28;20458;-77
2022/11/19 12:58:54;;;;;;;0.80;0.80;;;;;;;;;;5077121;28;20447;-76
2022/11/19 13:01:24;;;;;;;0.80;0.80;;;;;;;;;;5072696;28;20436;-76
2022/11/19 13:04:00;;;;;;;0.70;0.70;;;;;;;;;;5061551;28;20460;-74
2022/11/19 13:06:29;;;;;;;0.67;0.60;;;;;;;;;;5056483;28;20495;-75
2022/11/19 13:08:58;;;;;;;0.70;0.70;;;;;;;;;;5071555;28;20438;-75
2022/11/19 13:11:35;;;;;;;1.00;1.00;;;;;;;;;;5081061;28;20588;-75
2022/11/19 13:14:04;;;;;;;0.60;0.60;;;;;;;;;;5079455;28;20528;-75
2022/11/19 13:16:33;;;;;;;0.70;0.60;;;;;;;;;;5067086;28;20462;-75
2022/11/19 13:19:06;;;;;;;0.70;0.60;;;;;;;;;;5068775;28;20430;-77
2022/11/19 13:21:40;;;;;;;0.70;0.60;;;;;;;;;;5071177;28;20512;-75
2022/11/19 13:24:15;;;;;;;0.70;0.60;;;;;;;;;;5074969;28;20529;-76
2022/11/19 13:26:42;;;;;;;0.70;0.60;;;;;;;;;;5079508;28;20461;-75
2022/11/19 13:29:21;;;;;;;0.70;0.60;;;;;;;;;;5074176;28;20825;-76
2022/11/19 13:31:52;;;;;;;0.70;0.60;;;;;;;;;;5070426;28;20938;-76
2022/11/19 13:34:22;;;;;;;1.67;1.57;;;;;;;;;;5068721;28;20439;-77
2022/11/19 13:36:56;;;;;;;0.70;0.60;;;;;;;;;;5062050;28;20893;-77
2022/11/19 13:39:26;;;;;;;0.70;0.60;;;;;;;;;;5057397;28;20449;-75
2022/11/19 13:44:40;;;;;;;1.90;1.33;;;;;;;;;;5068397;28;20438;-74
2022/11/19 13:47:14;;;;;;;0.70;0.60;;;;;;;;;;5070407;28;20520;-76
2022/11/19 13:49:43;;;;;;;0.70;0.70;;;;;;;;;;5071891;28;21089;-76
2022/11/19 13:52:17;;;;;;;0.70;0.60;;;;;;;;;;5060229;28;21121;-76
2022/11/19 13:54:44;;;;;;;0.70;0.60;;;;;;;;;;5079918;28;20469;-76
2022/11/19 13:57:23;;;;;;;0.70;0.60;;;;;;;;;;5075343;28;20444;-75
2022/11/19 13:59:55;;;;;;;0.70;0.60;;;;;;;;;;5071035;28;20847;-76
2022/11/19 14:02:37;;;;;;;0.70;0.70;;;;;;;;;;5057402;28;20442;-76
2022/11/19 14:05:25;;;;;;;0.70;0.70;;;;;;;;;;5075329;28;21006;-76
2022/11/19 14:07:57;;;;;;;0.70;0.60;;;;;;;;;;5076292;28;21189;-75
2022/11/19 14:10:29;;;;;;;0.70;0.60;;;;;;;;;;5075704;28;20434;-76
2022/11/19 14:13:01;;;;;;;0.70;0.60;;;;;;;;;;5069167;28;20444;-77
2022/11/19 14:27:18;;;;;;;0.80;0.80;;;;;;;;;;5063984;28;20561;-76
2022/11/19 14:29:53;;;;;;;0.67;0.60;;;;;;;;;;5072577;28;21002;-77
2022/11/19 14:32:28;;;;;;;0.70;0.60;;;;;;;;;;5077694;28;20424;-78
2022/11/19 15:02:38;;;;;;;0.70;0.60;;;;;;;;;;4996743;28;20446;-74
2022/11/19 15:05:14;;;;;;;0.80;0.80;;;;;;;;;;4989502;28;20562;-74
2022/11/19 15:07:42;;;;;;;0.70;0.70;;;;;;;;;;4988424;28;20558;-74
2022/11/19 15:10:28;;;;;;;0.70;0.60;;;;;;;;;;4974458;28;20207;-73
2022/11/19 15:13:01;;;;;;;0.70;0.60;;;;;;;;;;4995178;28;20214;-73
2022/11/19 15:15:35;;;;;;;0.70;0.60;;;;;;;;;;4995002;28;20553;-73
2022/11/19 15:18:13;;;;;;;0.70;0.60;;;;;;;;;;4992173;28;20798;-74
2022/11/19 15:20:47;;;;;;;0.60;0.60;;;;;;;;;;4995882;28;20529;-74
2022/11/19 15:23:20;;;;;;;0.70;0.70;;;;;;;;;;4978158;28;20908;-74
2022/11/19 15:25:50;;;;;;;0.70;0.60;;;;;;;;;;4970103;28;20453;-74
2022/11/19 15:28:22;;;;;;;0.70;0.60;;;;;;;;;;4994525;28;20513;-73
2022/11/19 15:31:02;;;;;;;0.70;0.60;;;;;;;;;;4996176;28;20435;-74
2022/11/19 15:33:55;;;;;;;0.63;0.60;;;;;;;;;;4993591;28;20886;-74
2022/11/19 15:36:27;;;;;;;0.70;0.60;;;;;;;;;;4992194;28;20497;-73
2022/11/19 15:38:58;;;;;;;0.70;0.70;;;;;;;;;;4994352;28;20549;-73
2022/11/19 15:41:28;;;;;;;0.70;0.70;;;;;;;;;;4996393;28;20953;-75
2022/11/19 15:43:57;;;;;;;4.20;1.57;;;;;;;;;;4994708;28;20790;-73
2022/11/19 15:46:28;;;;;;;0.70;0.70;;;;;;;;;;4969466;28;20448;-76
2022/11/19 15:49:02;;;;;;;1.53;1.43;;;;;;;;;;4992747;28;20474;-75
2022/11/19 15:51:33;;;;;;;0.60;0.60;;;;;;;;;;4974042;28;20946;-74
2022/11/19 15:54:24;;;;;;;0.70;0.70;;;;;;;;;;4991979;28;20202;-72
2022/11/19 15:56:51;;;;;;;0.70;0.70;;;;;;;;;;4993973;28;20465;-72
2022/11/19 15:59:18;;;;;;;0.80;0.80;;;;;;;;;;4993213;28;20435;-74
2022/11/19 16:01:55;;;;;;;0.63;0.60;;;;;;;;;;4978616;28;20480;-73
2022/11/19 16:04:30;;;;;;;0.70;0.60;;;;;;;;;;4977478;28;20455;-73
2022/11/19 16:06:57;;;;;;;0.60;0.60;;;;;;;;;;4969971;28;20797;-73
2022/11/19 16:09:26;;;;;;;0.67;0.60;;;;;;;;;;4973597;28;20521;-73
2022/11/19 16:17:33;;;;;;;0.70;0.60;;;;;;;;;;4993113;28;20450;-73